Time;durP1;ratioP1;P1;durP2;ratioP2;P2;SDS_P1;SDS_P2;PMS_P1;PMS_P2;Temp;Humidity;BMP_temperature;BMP_pressure;BME280_temperature;BME280_humidity;BME280_pressure;Samples;Min_cycle;Max_cycle;Signal;HPM_P1;HPM_P2
2022/06/17 00:01:00;;;;;;;;;21.60;21.60;;;;;;;;4979420;28;8792;-70
2022/06/17 00:03:28;;;;;;;;;21.20;19.80;;;;;;;;4978679;28;8802;-68
2022/06/17 00:05:55;;;;;;;;;20.40;18.20;;;;;;;;4960770;28;8768;-65
2022/06/17 00:08:23;;;;;;;;;19.40;15.80;;;;;;;;4978352;28;8783;-68
2022/06/17 00:10:50;;;;;;;;;21.60;19.00;;;;;;;;4961863;28;8798;-68
2022/06/17 00:13:17;;;;;;;;;22.00;17.20;;;;;;;;4981100;28;8831;-69
2022/06/17 00:15:45;;;;;;;;;21.20;17.40;;;;;;;;4981899;28;8823;-62
2022/06/17 00:18:15;;;;;;;;;17.60;16.20;;;;;;;;4982668;28;8802;-70
2022/06/17 00:20:42;;;;;;;;;18.20;15.40;;;;;;;;4982311;28;8819;-70
2022/06/17 00:23:12;;;;;;;;;19.80;17.40;;;;;;;;4982364;28;8779;-69
2022/06/17 00:25:42;;;;;;;;;18.80;18.20;;;;;;;;4982037;28;8748;-61
2022/06/17 00:28:15;;;;;;;;;16.60;16.60;;;;;;;;4965569;28;8901;-69
2022/06/17 00:30:42;;;;;;;;;17.80;16.20;;;;;;;;4981888;28;8803;-67
2022/06/17 00:33:09;;;;;;;;;13.40;12.20;;;;;;;;4981888;28;8799;-68
2022/06/17 00:35:43;;;;;;;;;17.20;16.20;;;;;;;;4981517;28;8846;-64
2022/06/17 00:38:14;;;;;;;;;17.80;14.60;;;;;;;;4957840;29;8812;-62
2022/06/17 00:40:40;;;;;;;;;18.80;16.20;;;;;;;;4942134;28;8805;-69
2022/06/17 00:43:08;;;;;;;;;17.80;17.80;;;;;;;;4942603;29;8785;-58
2022/06/17 00:45:38;;;;;;;;;27.25;23.00;;;;;;;;4942813;28;9504;-58
2022/06/17 00:48:16;;;;;;;;;43.25;37.50;;;;;;;;4957281;28;8819;-70
2022/06/17 00:50:53;;;;;;;;;50.00;40.75;;;;;;;;4941359;29;9466;-58
2022/06/17 00:53:20;;;;;;;;;44.25;35.25;;;;;;;;4955185;29;8900;-70
2022/06/17 00:55:54;;;;;;;;;37.00;31.00;;;;;;;;4940446;28;8770;-69
2022/06/17 00:58:24;;;;;;;;;30.00;26.60;;;;;;;;4942892;29;8786;-66
2022/06/17 01:00:53;;;;;;;;;20.80;17.60;;;;;;;;4941909;28;8837;-68
2022/06/17 01:03:21;;;;;;;;;16.40;15.60;;;;;;;;4939971;29;8804;-70
2022/06/17 01:05:57;;;;;;;;;15.00;12.00;;;;;;;;4939791;28;8790;-67
2022/06/17 01:11:09;;;;;;;;;18.20;16.80;;;;;;;;4942048;28;8813;-70
2022/06/17 01:13:35;;;;;;;;;11.20;10.40;;;;;;;;4943437;29;8824;-72
2022/06/17 01:16:02;;;;;;;;;22.20;18.20;;;;;;;;4944183;28;8836;-72
2022/06/17 01:18:29;;;;;;;;;18.20;17.20;;;;;;;;4941613;29;8789;-69
2022/06/17 01:20:56;;;;;;;;;17.60;17.60;;;;;;;;4958126;28;8849;-62
2022/06/17 01:23:22;;;;;;;;;16.60;16.00;;;;;;;;4957252;29;8912;-58
2022/06/17 01:25:49;;;;;;;;;14.80;13.40;;;;;;;;4941948;28;8790;-62
2022/06/17 01:28:16;;;;;;;;;12.20;11.80;;;;;;;;4942425;29;8814;-69
2022/06/17 01:30:47;;;;;;;;;19.60;16.20;;;;;;;;4941499;28;8793;-59
2022/06/17 01:33:21;;;;;;;;;15.80;14.20;;;;;;;;4956356;28;8797;-68
2022/06/17 01:35:51;;;;;;;;;18.80;17.00;;;;;;;;4941938;28;8810;-68
2022/06/17 01:38:17;;;;;;;;;16.20;15.60;;;;;;;;4958209;28;8893;-67
2022/06/17 01:40:44;;;;;;;;;14.40;14.40;;;;;;;;4963312;28;8914;-69
2022/06/17 01:43:11;;;;;;;;;15.80;14.80;;;;;;;;4980263;28;8760;-61
2022/06/17 01:45:42;;;;;;;;;11.00;10.20;;;;;;;;4962760;28;8807;-69
2022/06/17 01:48:08;;;;;;;;;10.40;9.40;;;;;;;;4979122;28;8784;-71
2022/06/17 01:50:35;;;;;;;;;7.60;7.60;;;;;;;;4978446;28;8869;-65
2022/06/17 01:53:06;;;;;;;;;9.60;9.20;;;;;;;;4979977;28;8783;-59
2022/06/17 01:55:37;;;;;;;;;9.20;8.80;;;;;;;;4980052;28;8760;-70
2022/06/17 01:58:05;;;;;;;;;8.60;7.60;;;;;;;;4979512;28;9402;-71
2022/06/17 02:00:32;;;;;;;;;12.00;10.60;;;;;;;;4978180;28;8954;-66
2022/06/17 02:03:22;;;;;;;;;9.40;9.40;;;;;;;;4979878;28;8790;-71
2022/06/17 02:05:49;;;;;;;;;8.00;6.80;;;;;;;;4969450;28;8783;-69
2022/06/17 02:08:15;;;;;;;;;9.60;8.20;;;;;;;;4979909;28;8875;-62
2022/06/17 02:10:43;;;;;;;;;9.80;9.20;;;;;;;;4979826;28;8890;-64
2022/06/17 02:13:10;;;;;;;;;7.80;7.60;;;;;;;;4980245;28;8806;-70
2022/06/17 02:15:36;;;;;;;;;13.00;11.00;;;;;;;;4961954;28;8811;-64
2022/06/17 02:18:05;;;;;;;;;13.80;10.80;;;;;;;;4978620;28;8789;-66
2022/06/17 02:20:31;;;;;;;;;12.60;10.60;;;;;;;;4979284;28;8922;-70
2022/06/17 02:22:58;;;;;;;;;11.00;10.60;;;;;;;;4979914;28;8759;-66
2022/06/17 02:25:26;;;;;;;;;8.60;7.20;;;;;;;;4980008;28;8776;-69
2022/06/17 02:27:54;;;;;;;;;9.60;7.80;;;;;;;;4979625;28;8838;-63
2022/06/17 02:30:20;;;;;;;;;11.00;10.00;;;;;;;;4978607;28;8791;-56
2022/06/17 02:32:47;;;;;;;;;9.20;8.60;;;;;;;;4979647;28;8779;-67
2022/06/17 02:35:16;;;;;;;;;11.20;10.00;;;;;;;;4961693;28;9476;-71
2022/06/17 02:37:43;;;;;;;;;8.00;7.60;;;;;;;;4955016;29;8793;-70
2022/06/17 02:40:14;;;;;;;;;11.40;10.40;;;;;;;;4940897;29;8833;-71
2022/06/17 02:42:41;;;;;;;;;12.40;9.80;;;;;;;;4955637;28;8789;-71
2022/06/17 02:45:15;;;;;;;;;8.40;7.80;;;;;;;;4940639;29;8814;-70
2022/06/17 02:47:41;;;;;;;;;7.40;7.20;;;;;;;;4941092;29;8793;-73
2022/06/17 02:50:12;;;;;;;;;8.00;5.00;;;;;;;;4941139;29;8959;-73
2022/06/17 02:52:39;;;;;;;;;8.60;7.20;;;;;;;;4955071;29;8781;-72
2022/06/17 02:55:27;;;;;;;;;7.40;5.80;;;;;;;;4940410;29;8785;-68
2022/06/17 02:57:53;;;;;;;;;10.60;8.00;;;;;;;;4955970;29;8750;-66
2022/06/17 03:00:21;;;;;;;;;6.80;5.40;;;;;;;;4940011;28;8835;-70
2022/06/17 03:02:52;;;;;;;;;8.60;7.60;;;;;;;;4939829;29;8773;-73
2022/06/17 03:05:26;;;;;;;;;7.80;7.40;;;;;;;;4955061;28;8785;-62
2022/06/17 03:07:53;;;;;;;;;7.20;7.20;;;;;;;;4954438;29;8789;-83
2022/06/17 03:10:21;;;;;;;;;1.60;0.60;;;;;;;;4955296;28;8774;-64
2022/06/17 03:12:49;;;;;;;;;10.40;8.00;;;;;;;;4955105;28;8777;-62
2022/06/17 03:15:16;;;;;;;;;4.80;4.40;;;;;;;;4939069;29;8789;-75
2022/06/17 03:17:43;;;;;;;;;5.20;5.20;;;;;;;;4939013;29;8777;-72
2022/06/17 03:20:11;;;;;;;;;5.40;5.40;;;;;;;;4940104;29;9031;-69
2022/06/17 03:22:38;;;;;;;;;9.60;6.60;;;;;;;;4939474;29;8793;-71
2022/06/17 03:25:07;;;;;;;;;9.20;5.80;;;;;;;;4940635;29;8777;-70
2022/06/17 03:28:03;;;;;;;;;7.20;6.80;;;;;;;;4939853;29;8833;-71
2022/06/17 03:30:38;;;;;;;;;10.00;5.60;;;;;;;;4931279;28;8817;-71
2022/06/17 03:33:10;;;;;;;;;4.40;3.40;;;;;;;;4954606;28;8774;-76
2022/06/17 03:35:37;;;;;;;;;4.20;4.20;;;;;;;;4939238;28;8851;-71
2022/06/17 03:38:08;;;;;;;;;8.80;6.20;;;;;;;;4952352;28;8795;-72
2022/06/17 03:40:38;;;;;;;;;7.40;6.80;;;;;;;;4960959;28;8824;-74
2022/06/17 03:43:25;;;;;;;;;9.20;7.60;;;;;;;;4961760;28;8763;-67
2022/06/17 03:45:54;;;;;;;;;5.00;4.00;;;;;;;;4977851;28;8792;-64
2022/06/17 03:48:29;;;;;;;;;4.60;3.80;;;;;;;;4976739;28;8787;-64
2022/06/17 03:50:56;;;;;;;;;7.00;4.00;;;;;;;;4977840;28;8788;-65
2022/06/17 03:53:23;;;;;;;;;3.00;3.00;;;;;;;;4978063;28;8885;-65
2022/06/17 03:55:51;;;;;;;;;5.40;3.00;;;;;;;;4978328;28;8790;-65
2022/06/17 03:58:18;;;;;;;;;4.20;4.20;;;;;;;;4978216;28;8752;-65
2022/06/17 04:00:47;;;;;;;;;2.80;2.60;;;;;;;;4978128;28;8816;-65
2022/06/17 04:03:18;;;;;;;;;3.00;3.00;;;;;;;;4977451;28;8857;-66
2022/06/17 04:05:45;;;;;;;;;4.00;4.00;;;;;;;;4960963;28;8787;-66
2022/06/17 04:08:12;;;;;;;;;3.00;3.00;;;;;;;;4961097;28;8830;-66
2022/06/17 04:10:39;;;;;;;;;5.20;2.20;;;;;;;;4977711;28;8825;-66
2022/06/17 04:13:05;;;;;;;;;4.60;3.00;;;;;;;;4961570;28;8771;-66
2022/06/17 04:15:33;;;;;;;;;4.20;3.80;;;;;;;;4960235;28;8800;-65
2022/06/17 04:18:00;;;;;;;;;2.80;1.20;;;;;;;;4977429;28;8788;-63
2022/06/17 04:20:35;;;;;;;;;3.40;2.20;;;;;;;;4977726;28;8831;-67
2022/06/17 04:23:07;;;;;;;;;1.40;1.40;;;;;;;;4977588;28;8806;-68
2022/06/17 04:25:36;;;;;;;;;3.20;2.40;;;;;;;;4960190;28;8775;-67
2022/06/17 04:28:06;;;;;;;;;5.20;4.00;;;;;;;;4978714;28;8799;-70
2022/06/17 04:30:52;;;;;;;;;3.00;2.00;;;;;;;;4975740;28;8815;-66
2022/06/17 04:33:23;;;;;;;;;1.60;1.60;;;;;;;;4977882;28;8869;-62
2022/06/17 04:36:16;;;;;;;;;2.40;2.40;;;;;;;;4959411;28;8822;-62
2022/06/17 04:39:01;;;;;;;;;3.00;3.00;;;;;;;;4947764;28;8776;-63
2022/06/17 04:41:31;;;;;;;;;3.20;3.20;;;;;;;;4977122;28;9441;-62
2022/06/17 04:43:58;;;;;;;;;3.40;3.00;;;;;;;;4960218;28;8744;-63
2022/06/17 04:46:48;;;;;;;;;2.40;2.20;;;;;;;;4977387;28;8752;-63
2022/06/17 04:49:16;;;;;;;;;1.20;1.20;;;;;;;;4966624;28;8748;-64
2022/06/17 04:51:43;;;;;;;;;4.00;2.80;;;;;;;;4976690;28;8792;-63
2022/06/17 04:54:10;;;;;;;;;1.80;1.00;;;;;;;;4977895;28;8913;-62
2022/06/17 04:56:46;;;;;;;;;3.20;2.00;;;;;;;;4976423;28;8784;-62
2022/06/17 04:59:40;;;;;;;;;11.80;8.60;;;;;;;;4978328;28;8771;-62
2022/06/17 05:02:18;;;;;;;;;4.00;2.00;;;;;;;;4957865;28;8797;-63
2022/06/17 05:04:44;;;;;;;;;4.00;3.80;;;;;;;;4961803;28;8754;-64
2022/06/17 05:07:11;;;;;;;;;4.20;2.40;;;;;;;;4945492;28;8773;-63
2022/06/17 05:09:43;;;;;;;;;4.00;1.80;;;;;;;;4961490;28;8899;-64
2022/06/17 05:12:29;;;;;;;;;1.20;1.20;;;;;;;;4961149;28;9493;-64
2022/06/17 05:15:07;;;;;;;;;3.20;2.80;;;;;;;;4965449;28;8752;-63
2022/06/17 05:17:34;;;;;;;;;4.20;3.40;;;;;;;;4979801;28;9333;-64
2022/06/17 05:20:00;;;;;;;;;3.00;3.00;;;;;;;;4963605;28;9369;-65
2022/06/17 05:22:29;;;;;;;;;4.00;4.00;;;;;;;;4981257;28;8919;-64
2022/06/17 05:24:55;;;;;;;;;4.00;4.00;;;;;;;;4981118;28;8768;-65
2022/06/17 05:27:22;;;;;;;;;3.60;3.60;;;;;;;;4979759;28;8831;-65
2022/06/17 05:29:49;;;;;;;;;3.20;3.00;;;;;;;;4980542;28;9559;-65
2022/06/17 05:32:18;;;;;;;;;2.00;1.80;;;;;;;;4963370;28;8799;-65
2022/06/17 05:34:48;;;;;;;;;1.00;1.00;;;;;;;;4980980;28;8807;-65
2022/06/17 05:37:15;;;;;;;;;2.00;2.00;;;;;;;;4981418;28;8748;-65
2022/06/17 05:39:42;;;;;;;;;2.00;2.00;;;;;;;;4940862;28;8820;-65
2022/06/17 05:42:10;;;;;;;;;1.00;1.00;;;;;;;;4942769;28;8980;-65
2022/06/17 05:44:37;;;;;;;;;1.80;1.00;;;;;;;;4941948;28;8825;-66
2022/06/17 05:47:04;;;;;;;;;1.00;1.00;;;;;;;;4942336;28;8774;-65
2022/06/17 05:49:30;;;;;;;;;2.80;0.00;;;;;;;;4942087;28;8805;-65
2022/06/17 05:51:58;;;;;;;;;1.80;1.80;;;;;;;;4942555;29;8908;-65
2022/06/17 05:54:24;;;;;;;;;2.00;1.00;;;;;;;;4941934;28;8801;-65
2022/06/17 05:56:51;;;;;;;;;2.60;2.40;;;;;;;;4942595;28;8789;-65
2022/06/17 05:59:18;;;;;;;;;4.00;4.00;;;;;;;;4942086;28;8793;-64
2022/06/17 06:01:45;;;;;;;;;1.00;1.00;;;;;;;;4937433;29;8858;-68
2022/06/17 06:04:11;;;;;;;;;2.40;2.20;;;;;;;;4922076;29;8799;-65
2022/06/17 06:06:38;;;;;;;;;2.20;2.20;;;;;;;;4921850;29;8812;-65
2022/06/17 06:09:05;;;;;;;;;4.60;3.40;;;;;;;;4920941;29;8812;-65
2022/06/17 06:11:32;;;;;;;;;1.60;1.60;;;;;;;;4919235;29;8792;-65
2022/06/17 06:13:59;;;;;;;;;4.20;2.40;;;;;;;;4921954;29;8791;-65
2022/06/17 06:16:25;;;;;;;;;2.80;1.60;;;;;;;;4938223;28;9091;-63
2022/06/17 06:18:52;;;;;;;;;3.80;2.60;;;;;;;;4941727;29;9599;-65
2022/06/17 06:21:19;;;;;;;;;4.00;2.00;;;;;;;;4939764;29;8809;-63
2022/06/17 06:23:46;;;;;;;;;2.20;0.80;;;;;;;;4940159;29;8797;-65
2022/06/17 06:26:16;;;;;;;;;5.80;2.20;;;;;;;;4940736;28;8801;-66
2022/06/17 06:28:43;;;;;;;;;3.40;3.00;;;;;;;;4941197;28;8778;-65
2022/06/17 06:31:22;;;;;;;;;3.80;3.80;;;;;;;;4941086;29;8911;-66
2022/06/17 06:33:48;;;;;;;;;1.40;1.40;;;;;;;;4955688;28;8766;-65
2022/06/17 06:36:15;;;;;;;;;2.60;1.80;;;;;;;;4940620;28;9479;-66
2022/06/17 06:38:42;;;;;;;;;2.20;1.20;;;;;;;;4963151;28;8800;-65
2022/06/17 06:41:08;;;;;;;;;3.20;2.00;;;;;;;;4978943;28;8933;-65
2022/06/17 06:43:35;;;;;;;;;2.40;2.00;;;;;;;;4961275;28;8795;-65
2022/06/17 06:46:05;;;;;;;;;2.00;2.00;;;;;;;;4979913;28;8752;-66
2022/06/17 06:48:32;;;;;;;;;1.20;1.20;;;;;;;;4979298;28;8835;-65
2022/06/17 06:51:01;;;;;;;;;1.40;1.00;;;;;;;;4961652;28;8786;-65
2022/06/17 06:53:28;;;;;;;;;1.40;1.40;;;;;;;;4978779;28;8819;-66
2022/06/17 06:55:55;;;;;;;;;3.00;2.40;;;;;;;;4979353;28;8758;-65
2022/06/17 06:58:23;;;;;;;;;1.80;1.80;;;;;;;;4979561;28;8841;-65
2022/06/17 07:00:53;;;;;;;;;2.40;1.20;;;;;;;;4978907;28;8842;-65
2022/06/17 07:03:20;;;;;;;;;1.80;1.60;;;;;;;;4978631;28;8763;-65
2022/06/17 07:05:48;;;;;;;;;2.40;1.20;;;;;;;;4979452;28;8775;-66
2022/06/17 07:08:15;;;;;;;;;2.00;0.60;;;;;;;;4962104;28;9484;-65
2022/06/17 07:10:42;;;;;;;;;0.80;0.40;;;;;;;;4979045;28;8740;-65
2022/06/17 07:13:09;;;;;;;;;1.00;1.00;;;;;;;;4979786;28;8767;-65
2022/06/17 07:15:39;;;;;;;;;1.00;1.00;;;;;;;;4978488;28;8780;-65
2022/06/17 07:18:08;;;;;;;;;3.00;2.00;;;;;;;;4978989;28;8791;-65
2022/06/17 07:20:37;;;;;;;;;3.20;3.20;;;;;;;;4978741;28;9483;-65
2022/06/17 07:23:07;;;;;;;;;4.00;2.40;;;;;;;;4978846;28;8764;-65
2022/06/17 07:25:34;;;;;;;;;2.00;1.00;;;;;;;;4978442;28;8797;-65
2022/06/17 07:28:00;;;;;;;;;3.60;1.20;;;;;;;;4979575;28;8783;-65
2022/06/17 07:30:30;;;;;;;;;2.00;2.00;;;;;;;;4978409;28;8803;-64
2022/06/17 07:32:57;;;;;;;;;3.00;1.00;;;;;;;;4961484;28;8787;-65
2022/06/17 07:35:24;;;;;;;;;2.00;0.20;;;;;;;;4960970;28;8783;-65
2022/06/17 07:40:37;;;;;;;;;0.40;0.40;;;;;;;;4978228;28;8804;-65
2022/06/17 07:43:04;;;;;;;;;0.00;0.00;;;;;;;;4978798;28;8771;-65
2022/06/17 07:45:31;;;;;;;;;2.20;1.00;;;;;;;;4978320;28;8803;-65
2022/06/17 07:47:58;;;;;;;;;2.60;1.00;;;;;;;;4960984;28;8787;-66
2022/06/17 07:50:29;;;;;;;;;2.20;0.00;;;;;;;;4977694;28;8865;-66
2022/06/17 07:52:56;;;;;;;;;0.00;0.00;;;;;;;;4978103;28;8771;-65
2022/06/17 07:55:22;;;;;;;;;1.00;1.00;;;;;;;;4979255;28;8751;-65
2022/06/17 07:57:49;;;;;;;;;1.00;0.60;;;;;;;;4961148;28;8790;-65
2022/06/17 08:00:21;;;;;;;;;3.20;2.00;;;;;;;;4960425;28;8795;-66
2022/06/17 08:02:47;;;;;;;;;0.40;0.20;;;;;;;;4978624;28;8786;-66
2022/06/17 08:05:14;;;;;;;;;1.00;1.00;;;;;;;;4961625;28;9445;-65
2022/06/17 08:07:41;;;;;;;;;2.20;1.00;;;;;;;;4978080;28;8768;-65
2022/06/17 08:10:07;;;;;;;;;2.60;1.60;;;;;;;;4979250;28;8779;-65
2022/06/17 08:12:34;;;;;;;;;2.00;1.00;;;;;;;;4978434;28;9416;-66
2022/06/17 08:15:01;;;;;;;;;2.00;0.80;;;;;;;;4974232;28;9416;-66
2022/06/17 08:17:29;;;;;;;;;1.80;1.00;;;;;;;;4960302;28;8787;-65
2022/06/17 08:19:57;;;;;;;;;1.75;1.75;;;;;;;;4978448;28;8849;-66
2022/06/17 08:22:27;;;;;;;;;0.40;0.40;;;;;;;;4961018;28;8768;-64
2022/06/17 08:24:55;;;;;;;;;2.80;1.00;;;;;;;;4978843;28;8764;-66
2022/06/17 08:27:22;;;;;;;;;3.00;1.00;;;;;;;;4977913;28;8775;-65
2022/06/17 08:29:49;;;;;;;;;3.00;2.00;;;;;;;;4978056;28;8846;-65
2022/06/17 08:35:03;;;;;;;;;1.60;1.60;;;;;;;;4980899;28;8779;-65
2022/06/17 08:37:30;;;;;;;;;4.60;3.80;;;;;;;;4964764;28;8836;-65
2022/06/17 08:39:57;;;;;;;;;3.40;3.40;;;;;;;;4964674;28;9662;-65
2022/06/17 08:42:42;;;;;;;;;1.60;1.00;;;;;;;;4980590;28;8813;-65
2022/06/17 08:45:21;;;;;;;;;2.00;1.00;;;;;;;;4981619;28;9529;-65
2022/06/17 08:48:00;;;;;;;;;0.80;0.80;;;;;;;;4983877;28;8790;-65
2022/06/17 08:50:30;;;;;;;;;1.20;1.00;;;;;;;;4980317;28;8795;-65
2022/06/17 08:52:57;;;;;;;;;0.60;0.00;;;;;;;;4964041;28;8796;-65
2022/06/17 08:55:29;;;;;;;;;1.20;1.00;;;;;;;;4964874;28;8752;-64
2022/06/17 08:58:00;;;;;;;;;0.00;0.00;;;;;;;;4964550;28;8783;-66
2022/06/17 09:00:47;;;;;;;;;0.20;0.20;;;;;;;;4979654;28;8772;-65
2022/06/17 09:03:32;;;;;;;;;1.00;1.00;;;;;;;;4982262;28;9451;-65
2022/06/17 09:06:17;;;;;;;;;0.60;0.60;;;;;;;;4981800;28;8787;-66
2022/06/17 09:09:03;;;;;;;;;1.60;0.00;;;;;;;;4968093;28;8755;-65
2022/06/17 09:11:48;;;;;;;;;1.80;1.40;;;;;;;;4982984;28;8748;-65
2022/06/17 09:14:30;;;;;;;;;3.00;1.40;;;;;;;;4964072;28;8884;-65
2022/06/17 09:17:08;;;;;;;;;1.60;1.60;;;;;;;;4961871;28;8786;-65
2022/06/17 09:19:36;;;;;;;;;3.00;3.00;;;;;;;;4944514;28;8778;-65
2022/06/17 09:22:08;;;;;;;;;0.80;0.80;;;;;;;;4962319;28;8810;-65
2022/06/17 09:24:38;;;;;;;;;4.80;3.20;;;;;;;;4965445;28;8773;-65
2022/06/17 09:27:12;;;;;;;;;5.00;3.80;;;;;;;;4945116;28;8826;-65
2022/06/17 09:29:58;;;;;;;;;2.60;2.60;;;;;;;;4946905;28;9311;-65
2022/06/17 09:32:31;;;;;;;;;2.60;2.60;;;;;;;;4980689;28;8763;-65
2022/06/17 09:34:58;;;;;;;;;5.00;5.00;;;;;;;;4980989;28;8767;-65
2022/06/17 09:37:44;;;;;;;;;4.80;4.80;;;;;;;;4981187;28;9455;-65
2022/06/17 09:40:14;;;;;;;;;7.60;6.60;;;;;;;;4981432;28;8752;-66
2022/06/17 09:42:45;;;;;;;;;3.80;3.80;;;;;;;;4980614;28;8814;-66
2022/06/17 09:45:35;;;;;;;;;5.00;5.00;;;;;;;;4958165;28;8785;-66
2022/06/17 09:48:05;;;;;;;;;2.60;2.60;;;;;;;;4956252;28;8844;-66
2022/06/17 09:50:40;;;;;;;;;2.00;1.00;;;;;;;;4959734;28;8806;-66
2022/06/17 09:53:27;;;;;;;;;4.80;4.00;;;;;;;;4960077;28;8792;-65
2022/06/17 09:55:53;;;;;;;;;6.60;5.40;;;;;;;;4933810;28;8770;-66
2022/06/17 09:58:23;;;;;;;;;5.00;3.00;;;;;;;;4962029;28;8734;-65
2022/06/17 10:00:50;;;;;;;;;7.40;5.40;;;;;;;;4972201;28;8812;-66
2022/06/17 10:03:23;;;;;;;;;4.40;4.00;;;;;;;;4980229;28;8850;-65
2022/06/17 10:05:59;;;;;;;;;7.40;5.40;;;;;;;;4980230;28;8728;-66
2022/06/17 10:08:40;;;;;;;;;8.80;6.80;;;;;;;;4980226;28;8771;-66
2022/06/17 10:11:25;;;;;;;;;8.40;6.40;;;;;;;;4980395;28;8773;-66
2022/06/17 10:13:52;;;;;;;;;5.80;5.80;;;;;;;;4980483;28;8795;-66
2022/06/17 10:19:20;;;;;;;;;9.60;9.40;;;;;;;;4979447;28;8747;-66
2022/06/17 10:21:47;;;;;;;;;5.00;2.00;;;;;;;;4979847;28;8829;-65
2022/06/17 10:24:30;;;;;;;;;105.40;102.60;;;;;;;;4979645;28;8783;-66
2022/06/17 10:27:16;;;;;;;;;16.00;12.75;;;;;;;;4978950;28;9460;-65
2022/06/17 10:29:51;;;;;;;;;48.00;38.50;;;;;;;;4980086;28;8767;-66
2022/06/17 10:32:18;;;;;;;;;63.00;48.75;;;;;;;;4980166;28;8790;-65
2022/06/17 10:34:55;;;;;;;;;10.00;8.80;;;;;;;;4980430;28;8813;-66
2022/06/17 10:37:21;;;;;;;;;3.00;3.00;;;;;;;;4962629;28;8759;-65
2022/06/17 10:39:48;;;;;;;;;50.25;40.50;;;;;;;;4979626;28;9456;-66
2022/06/17 10:42:16;;;;;;;;;8.80;6.60;;;;;;;;4980239;28;8806;-66
2022/06/17 10:44:44;;;;;;;;;9.40;9.40;;;;;;;;4963136;28;8795;-66
2022/06/17 10:47:29;;;;;;;;;59.00;46.75;;;;;;;;4962945;28;8858;-66
2022/06/17 10:49:59;;;;;;;;;11.40;9.40;;;;;;;;4963068;28;8862;-65
2022/06/17 10:52:33;;;;;;;;;10.40;8.40;;;;;;;;4978806;28;8759;-66
2022/06/17 10:55:00;;;;;;;;;9.60;7.60;;;;;;;;4963278;28;8772;-66
2022/06/17 10:57:28;;;;;;;;;15.00;11.60;;;;;;;;4978745;28;8946;-65
2022/06/17 10:59:54;;;;;;;;;8.20;5.40;;;;;;;;4979562;28;8982;-66
2022/06/17 11:02:24;;;;;;;;;8.00;8.00;;;;;;;;4979937;28;8795;-66
2022/06/17 11:04:55;;;;;;;;;52.50;43.50;;;;;;;;4962885;28;9420;-66
2022/06/17 11:07:37;;;;;;;;;21.25;19.00;;;;;;;;4980554;28;8798;-65
2022/06/17 11:10:03;;;;;;;;;19.75;14.75;;;;;;;;4980820;28;8837;-66
2022/06/17 11:12:33;;;;;;;;;22.50;21.50;;;;;;;;4979312;28;8760;-66
2022/06/17 11:15:06;;;;;;;;;3.40;2.60;;;;;;;;4980403;28;8780;-65
2022/06/17 11:17:33;;;;;;;;;2.00;2.00;;;;;;;;4979913;28;8775;-66
2022/06/17 11:20:02;;;;;;;;;4.20;3.20;;;;;;;;4980157;28;8771;-66
2022/06/17 11:22:40;;;;;;;;;1.80;1.80;;;;;;;;4979685;28;8787;-65
2022/06/17 11:25:27;;;;;;;;;3.60;3.00;;;;;;;;4963141;28;8772;-66
2022/06/17 11:27:55;;;;;;;;;3.60;2.80;;;;;;;;4966762;28;8752;-66
2022/06/17 11:30:22;;;;;;;;;2.80;2.00;;;;;;;;4958304;28;9467;-65
2022/06/17 11:32:49;;;;;;;;;2.60;1.00;;;;;;;;4960089;28;8758;-66
2022/06/17 11:35:18;;;;;;;;;3.00;2.80;;;;;;;;4959948;28;8804;-66
2022/06/17 11:37:46;;;;;;;;;1.20;0.80;;;;;;;;4959817;28;9157;-66
2022/06/17 11:40:13;;;;;;;;;3.40;1.00;;;;;;;;4960756;28;8849;-68
2022/06/17 11:42:59;;;;;;;;;2.40;0.00;;;;;;;;4974949;28;8773;-71
2022/06/17 11:45:29;;;;;;;;;0.00;0.00;;;;;;;;4968444;28;8752;-67
2022/06/17 11:47:59;;;;;;;;;2.80;0.40;;;;;;;;4979039;28;8790;-71
2022/06/17 11:50:27;;;;;;;;;1.00;1.00;;;;;;;;4978994;28;8794;-70
2022/06/17 11:52:59;;;;;;;;;0.80;0.80;;;;;;;;4961743;28;8779;-68
2022/06/17 11:55:29;;;;;;;;;0.00;0.00;;;;;;;;4977747;28;8762;-70
2022/06/17 11:57:56;;;;;;;;;0.00;0.00;;;;;;;;4978240;28;8855;-65
2022/06/17 12:00:24;;;;;;;;;4.80;4.80;;;;;;;;4978195;28;8796;-71
2022/06/17 12:02:57;;;;;;;;;2.20;2.00;;;;;;;;4951416;28;8783;-66
2022/06/17 12:05:25;;;;;;;;;2.20;2.20;;;;;;;;4977998;28;8791;-59
2022/06/17 12:07:52;;;;;;;;;3.00;2.20;;;;;;;;4978051;28;8874;-72
2022/06/17 12:10:22;;;;;;;;;4.40;1.80;;;;;;;;4978593;28;8720;-71
2022/06/17 12:12:49;;;;;;;;;2.60;2.00;;;;;;;;4978170;28;8748;-71
2022/06/17 12:15:20;;;;;;;;;2.40;2.00;;;;;;;;4961416;28;8792;-66
2022/06/17 12:17:47;;;;;;;;;3.40;2.80;;;;;;;;4978629;28;8756;-71
2022/06/17 12:20:46;;;;;;;;;4.00;3.00;;;;;;;;4978194;28;8775;-72
2022/06/17 12:23:20;;;;;;;;;5.00;3.20;;;;;;;;4935684;28;8893;-61
2022/06/17 12:25:47;;;;;;;;;2.60;2.00;;;;;;;;4961722;28;8767;-71
2022/06/17 12:28:20;;;;;;;;;1.80;1.00;;;;;;;;4979013;28;8882;-65
2022/06/17 12:31:07;;;;;;;;;2.60;2.60;;;;;;;;4978157;28;8858;-64
2022/06/17 12:33:36;;;;;;;;;4.20;3.00;;;;;;;;4931666;28;8756;-66
2022/06/17 12:36:15;;;;;;;;;3.60;3.00;;;;;;;;4960712;28;8766;-72
2022/06/17 12:38:45;;;;;;;;;2.80;1.60;;;;;;;;4960850;28;8768;-72
2022/06/17 12:41:14;;;;;;;;;3.60;2.00;;;;;;;;4960915;28;8818;-73
2022/06/17 12:43:47;;;;;;;;;4.00;2.60;;;;;;;;4968338;28;8833;-72
2022/06/17 12:46:26;;;;;;;;;2.60;1.80;;;;;;;;4962896;28;8788;-73
2022/06/17 12:54:50;;;;;;;;;5.40;2.60;;;;;;;;4944453;29;8778;-72
2022/06/17 12:57:19;;;;;;;;;5.20;5.00;;;;;;;;4958339;29;8777;-61
2022/06/17 12:59:56;;;;;;;;;3.20;3.20;;;;;;;;4944714;28;9866;-72
2022/06/17 13:02:42;;;;;;;;;5.00;3.80;;;;;;;;4960319;28;8779;-64
2022/06/17 13:05:09;;;;;;;;;10.60;4.60;;;;;;;;4938977;28;8771;-72
2022/06/17 13:07:54;;;;;;;;;5.40;2.00;;;;;;;;4977657;28;8849;-71
2022/06/17 13:10:39;;;;;;;;;1.00;1.00;;;;;;;;4962050;28;8768;-54
2022/06/17 13:13:09;;;;;;;;;20.80;15.40;;;;;;;;4978568;28;8728;-65
2022/06/17 13:15:38;;;;;;;;;11.00;9.00;;;;;;;;4960361;28;8767;-72
2022/06/17 13:18:10;;;;;;;;;9.40;8.80;;;;;;;;4977899;28;8752;-69
2022/06/17 13:20:41;;;;;;;;;7.40;6.40;;;;;;;;4980184;28;8835;-62
2022/06/17 13:23:11;;;;;;;;;7.00;5.20;;;;;;;;4964463;28;8780;-68
2022/06/17 13:25:58;;;;;;;;;5.60;3.20;;;;;;;;4964220;28;8791;-71
2022/06/17 13:28:35;;;;;;;;;8.00;7.60;;;;;;;;4980221;28;8767;-63
2022/06/17 13:31:20;;;;;;;;;8.80;6.00;;;;;;;;4982074;28;8772;-71
2022/06/17 13:33:52;;;;;;;;;4.00;4.00;;;;;;;;4964218;28;8759;-62
2022/06/17 13:36:27;;;;;;;;;2.40;2.00;;;;;;;;4981770;28;8841;-59
2022/06/17 13:39:03;;;;;;;;;1.40;1.00;;;;;;;;4964632;28;8783;-70
2022/06/17 13:41:38;;;;;;;;;3.00;2.00;;;;;;;;4963997;28;8795;-65
2022/06/17 13:44:05;;;;;;;;;3.00;3.00;;;;;;;;4963820;28;8779;-60
2022/06/17 13:46:33;;;;;;;;;2.40;2.20;;;;;;;;4980362;28;8779;-67
2022/06/17 13:49:20;;;;;;;;;27.00;24.80;;;;;;;;4981417;28;9503;-71
2022/06/17 13:52:16;;;;;;;;;13.40;11.00;;;;;;;;4979509;28;8787;-53
2022/06/17 13:54:55;;;;;;;;;6.40;4.00;;;;;;;;4964430;28;8987;-60
2022/06/17 13:57:27;;;;;;;;;6.80;5.00;;;;;;;;4962874;28;8802;-72
2022/06/17 13:59:55;;;;;;;;;3.60;2.80;;;;;;;;4979522;28;8898;-68
2022/06/17 14:02:30;;;;;;;;;4.00;3.40;;;;;;;;4980427;28;8791;-66
2022/06/17 14:04:59;;;;;;;;;2.00;2.00;;;;;;;;4964177;28;8996;-72
2022/06/17 14:07:44;;;;;;;;;0.60;0.60;;;;;;;;4980883;28;8782;-71
2022/06/17 14:10:29;;;;;;;;;2.20;1.00;;;;;;;;4981468;28;8818;-65
2022/06/17 14:12:56;;;;;;;;;2.00;2.00;;;;;;;;4981724;28;8756;-72
2022/06/17 14:15:26;;;;;;;;;2.20;1.00;;;;;;;;4980176;28;8846;-71
2022/06/17 14:17:54;;;;;;;;;3.00;1.00;;;;;;;;4980495;28;8799;-69
2022/06/17 14:20:33;;;;;;;;;3.80;1.00;;;;;;;;4980360;28;8875;-70
2022/06/17 14:23:13;;;;;;;;;0.80;0.80;;;;;;;;4962897;28;9586;-72
2022/06/17 14:25:59;;;;;;;;;1.40;1.00;;;;;;;;4979324;28;8887;-72
2022/06/17 14:28:30;;;;;;;;;1.00;1.00;;;;;;;;4980679;28;8740;-65
2022/06/17 14:31:12;;;;;;;;;4.80;3.60;;;;;;;;4980326;28;8780;-69
2022/06/17 14:33:44;;;;;;;;;25.00;22.25;;;;;;;;4980573;28;8791;-71
2022/06/17 14:36:15;;;;;;;;;33.00;25.50;;;;;;;;4962891;28;9413;-71
2022/06/17 14:38:44;;;;;;;;;18.40;15.60;;;;;;;;4956087;29;8798;-71
2022/06/17 14:44:16;;;;;;;;;19.80;15.60;;;;;;;;4941527;29;8781;-69
2022/06/17 14:47:06;;;;;;;;;18.60;13.00;;;;;;;;4941156;28;8766;-71
2022/06/17 14:49:39;;;;;;;;;19.00;15.00;;;;;;;;4935902;28;8817;-68
2022/06/17 14:52:26;;;;;;;;;13.00;10.40;;;;;;;;4941950;28;8812;-72
2022/06/17 14:55:03;;;;;;;;;7.80;6.80;;;;;;;;4941902;29;8808;-70
2022/06/17 14:57:30;;;;;;;;;3.60;3.60;;;;;;;;4956044;28;9419;-72
2022/06/17 15:00:03;;;;;;;;;5.80;4.60;;;;;;;;4941508;29;8793;-69
2022/06/17 15:02:30;;;;;;;;;4.80;4.80;;;;;;;;4941008;29;9435;-71
2022/06/17 15:04:57;;;;;;;;;4.20;4.20;;;;;;;;4940011;29;8769;-72
2022/06/17 15:07:25;;;;;;;;;6.80;5.00;;;;;;;;4941294;28;8910;-73
2022/06/17 15:09:53;;;;;;;;;9.80;5.40;;;;;;;;4941170;29;8781;-67
2022/06/17 15:12:26;;;;;;;;;14.60;12.80;;;;;;;;4940461;28;8808;-70
2022/06/17 15:14:59;;;;;;;;;14.20;11.40;;;;;;;;4940925;29;8770;-72
2022/06/17 15:17:31;;;;;;;;;7.40;6.60;;;;;;;;4940647;28;8796;-70
2022/06/17 15:19:58;;;;;;;;;7.60;4.80;;;;;;;;4940803;29;8785;-70
2022/06/17 15:22:28;;;;;;;;;6.40;5.20;;;;;;;;4939822;28;8822;-68
2022/06/17 15:25:14;;;;;;;;;3.40;3.00;;;;;;;;4940543;29;8805;-73
2022/06/17 15:27:53;;;;;;;;;4.20;4.00;;;;;;;;4940564;28;8789;-68
2022/06/17 15:30:21;;;;;;;;;2.00;1.80;;;;;;;;4940265;29;8813;-70
2022/06/17 15:32:49;;;;;;;;;5.00;2.40;;;;;;;;4939705;29;8777;-72
2022/06/17 15:35:21;;;;;;;;;2.40;2.40;;;;;;;;4955304;28;8805;-71